createdAt,value
2018-09-17T00:01:09.808Z,7.70
2018-09-17T00:03:38.102Z,7.80
2018-09-17T00:06:06.444Z,7.70
2018-09-17T00:08:34.746Z,7.70
2018-09-17T00:11:03.106Z,7.70
2018-09-17T00:13:31.480Z,7.70
2018-09-17T00:15:59.814Z,7.70
2018-09-17T00:18:28.142Z,7.70
2018-09-17T00:20:56.442Z,7.60
2018-09-17T00:23:24.803Z,7.60
2018-09-17T00:25:53.138Z,7.60
2018-09-17T00:28:21.487Z,7.60
2018-09-17T00:30:49.850Z,7.60
2018-09-17T00:33:18.151Z,7.60
2018-09-17T00:35:46.507Z,7.70
2018-09-17T00:38:14.765Z,7.70
2018-09-17T00:40:43.088Z,7.70
2018-09-17T00:43:11.408Z,7.70
2018-09-17T00:45:39.743Z,7.70
2018-09-17T00:48:08.062Z,7.80
2018-09-17T00:50:36.457Z,7.90
2018-09-17T00:53:04.779Z,8.00
2018-09-17T00:55:33.099Z,7.90
2018-09-17T00:58:01.473Z,7.80
2018-09-17T01:00:29.762Z,7.80
2018-09-17T01:02:58.071Z,7.80
2018-09-17T01:05:26.374Z,7.80
2018-09-17T01:08:01.425Z,7.80
2018-09-17T01:10:29.817Z,7.80
2018-09-17T01:12:58.207Z,7.90
2018-09-17T01:15:26.545Z,7.90
2018-09-17T01:17:54.883Z,7.90
2018-09-17T01:20:23.665Z,7.90
2018-09-17T01:22:52.005Z,7.90
2018-09-17T01:25:20.479Z,7.90
2018-09-17T01:27:48.848Z,7.90
2018-09-17T01:30:17.230Z,7.90
2018-09-17T01:32:45.628Z,7.90
2018-09-17T01:35:14.016Z,7.90
2018-09-17T01:37:42.381Z,7.90
2018-09-17T01:40:10.798Z,8.00
2018-09-17T01:42:39.166Z,8.00
2018-09-17T01:45:07.538Z,8.00
2018-09-17T01:47:35.921Z,8.00
2018-09-17T01:50:04.698Z,8.00
2018-09-17T01:52:33.127Z,8.10
2018-09-17T01:55:01.515Z,8.10
2018-09-17T01:57:29.981Z,8.10
2018-09-17T01:59:58.346Z,8.10
2018-09-17T02:02:26.675Z,8.20
2018-09-17T02:04:54.994Z,8.30
2018-09-17T02:07:24.402Z,8.40
2018-09-17T02:09:52.759Z,8.40
2018-09-17T02:12:21.092Z,8.40
2018-09-17T02:14:49.452Z,8.50
2018-09-17T02:17:17.823Z,8.40
2018-09-17T02:19:46.198Z,8.50
2018-09-17T02:22:14.572Z,8.50
2018-09-17T02:24:42.957Z,8.40
2018-09-17T02:27:11.281Z,8.20
2018-09-17T02:29:39.649Z,8.20
2018-09-17T02:32:07.977Z,8.00
2018-09-17T02:34:36.313Z,8.00
2018-09-17T02:37:04.673Z,7.90
2018-09-17T02:39:33.065Z,7.80
2018-09-17T02:42:01.383Z,7.60
2018-09-17T02:44:29.723Z,7.60
2018-09-17T02:46:58.091Z,7.50
2018-09-17T02:49:26.445Z,7.40
2018-09-17T02:51:54.796Z,7.30
2018-09-17T02:54:23.162Z,7.30
2018-09-17T02:56:51.524Z,7.20
2018-09-17T02:59:19.853Z,7.20
2018-09-17T03:01:48.216Z,7.10
2018-09-17T03:04:16.554Z,7.10
2018-09-17T03:06:45.256Z,7.00
2018-09-17T03:09:13.595Z,7.00
2018-09-17T03:11:41.923Z,7.00
2018-09-17T03:14:10.357Z,7.00
2018-09-17T03:16:49.972Z,7.00
2018-09-17T03:19:18.364Z,6.90
2018-09-17T03:21:46.785Z,6.90
2018-09-17T03:24:15.150Z,6.80
2018-09-17T03:26:43.523Z,6.80
2018-09-17T03:29:11.834Z,6.70
2018-09-17T03:31:40.210Z,6.70
2018-09-17T03:34:08.564Z,6.70
2018-09-17T03:36:36.956Z,6.70
2018-09-17T03:39:06.541Z,6.70
2018-09-17T03:41:35.296Z,6.60
2018-09-17T03:44:03.692Z,6.70
2018-09-17T03:46:33.084Z,6.70
2018-09-17T03:49:01.331Z,6.60
2018-09-17T03:51:29.701Z,6.60
2018-09-17T03:53:58.061Z,6.60
2018-09-17T03:56:26.399Z,6.50
2018-09-17T03:58:54.740Z,6.50
2018-09-17T04:01:23.076Z,6.50
2018-09-17T04:03:51.429Z,6.40
2018-09-17T04:06:19.788Z,6.40
2018-09-17T04:08:48.110Z,6.50
2018-09-17T04:11:16.523Z,6.40
2018-09-17T04:13:44.887Z,6.40
2018-09-17T04:16:13.250Z,6.40
2018-09-17T04:18:41.690Z,6.30
2018-09-17T04:21:09.999Z,6.30
2018-09-17T04:23:38.859Z,6.30
2018-09-17T04:26:09.324Z,6.20
2018-09-17T04:28:38.252Z,6.20
2018-09-17T04:31:06.651Z,6.20
2018-09-17T04:33:36.941Z,6.20
2018-09-17T04:36:05.370Z,6.20
2018-09-17T04:38:33.746Z,6.20
2018-09-17T04:41:02.338Z,6.30
2018-09-17T04:43:30.725Z,6.20
2018-09-17T04:45:59.255Z,6.30
2018-09-17T04:48:27.619Z,6.20
2018-09-17T04:50:55.991Z,6.20
2018-09-17T04:53:24.402Z,6.30
2018-09-17T04:55:52.731Z,6.30
2018-09-17T04:58:21.106Z,6.30
2018-09-17T05:00:49.539Z,6.40
2018-09-17T05:03:17.944Z,6.30
2018-09-17T05:05:46.277Z,6.30
2018-09-17T05:08:14.621Z,6.40
2018-09-17T05:10:42.961Z,6.40
2018-09-17T05:13:11.425Z,6.40
2018-09-17T05:15:39.647Z,6.40
2018-09-17T05:18:08.004Z,6.40
2018-09-17T05:20:36.446Z,6.30
2018-09-17T05:23:04.759Z,6.50
2018-09-17T05:25:33.115Z,6.60
2018-09-17T05:28:01.508Z,6.60
2018-09-17T05:30:29.858Z,6.60
2018-09-17T05:32:58.198Z,6.60
2018-09-17T05:35:26.564Z,6.70
2018-09-17T05:37:54.901Z,6.70
2018-09-17T05:40:23.270Z,6.80
2018-09-17T05:42:51.597Z,6.80
2018-09-17T05:45:20.060Z,6.80
2018-09-17T05:47:48.421Z,6.80
2018-09-17T05:50:16.813Z,7.00
2018-09-17T05:52:45.167Z,7.10
2018-09-17T05:55:13.526Z,7.10
2018-09-17T05:57:41.856Z,7.20
2018-09-17T06:00:10.270Z,7.30
2018-09-17T06:02:38.590Z,7.40
2018-09-17T06:05:06.930Z,7.40
2018-09-17T06:07:35.258Z,7.50
2018-09-17T06:10:05.811Z,7.60
2018-09-17T06:12:34.182Z,7.70
2018-09-17T06:15:02.532Z,7.80
2018-09-17T06:17:30.932Z,8.00
2018-09-17T06:19:59.257Z,8.10
2018-09-17T06:22:27.590Z,8.20
2018-09-17T06:24:55.946Z,8.30
2018-09-17T06:27:24.271Z,8.50
2018-09-17T06:29:52.623Z,8.80
2018-09-17T06:32:20.966Z,8.90
2018-09-17T06:34:49.287Z,9.20
2018-09-17T06:37:17.714Z,9.40
2018-09-17T06:39:46.033Z,9.60
2018-09-17T06:42:14.360Z,9.90
2018-09-17T06:44:42.916Z,10.10
2018-09-17T06:47:11.435Z,10.40
2018-09-17T06:49:39.943Z,10.60
2018-09-17T06:52:08.392Z,10.80
2018-09-17T06:54:36.764Z,11.10
2018-09-17T06:57:05.244Z,11.40
2018-09-17T06:59:33.623Z,11.60
2018-09-17T07:02:02.106Z,11.80
2018-09-17T07:04:30.447Z,12.00
2018-09-17T07:06:58.806Z,12.10
2018-09-17T07:09:27.128Z,12.30
2018-09-17T07:11:55.483Z,12.50
2018-09-17T07:14:23.807Z,12.70
2018-09-17T07:16:52.245Z,12.90
2018-09-17T07:19:20.589Z,13.00
2018-09-17T07:21:48.924Z,13.20
2018-09-17T07:24:17.243Z,13.30
2018-09-17T07:26:45.583Z,13.50
2018-09-17T07:29:13.906Z,13.70
2018-09-17T07:31:42.220Z,13.90
2018-09-17T07:34:10.608Z,14.10
2018-09-17T07:36:38.961Z,14.40
2018-09-17T07:39:09.212Z,14.70
2018-09-17T07:41:37.517Z,15.00
2018-09-17T07:44:05.952Z,15.30
2018-09-17T07:46:34.429Z,15.70
2018-09-17T07:49:02.784Z,16.10
2018-09-17T07:51:31.110Z,16.50
2018-09-17T07:53:59.504Z,16.80
2018-09-17T07:56:28.137Z,17.10
2018-09-17T07:58:56.518Z,17.30
2018-09-17T08:01:24.884Z,17.40
2018-09-17T08:03:53.417Z,17.60
2018-09-17T08:06:21.810Z,17.70
2018-09-17T08:08:50.263Z,17.80
2018-09-17T08:11:18.630Z,17.90
2018-09-17T08:13:47.140Z,18.00
2018-09-17T08:16:15.560Z,18.00
2018-09-17T08:18:43.912Z,18.00
2018-09-17T08:21:12.278Z,18.10
2018-09-17T08:23:40.662Z,18.20
2018-09-17T08:26:09.022Z,18.30
2018-09-17T08:28:37.392Z,18.50
2018-09-17T08:31:06.292Z,18.50
2018-09-17T08:33:34.598Z,18.50
2018-09-17T08:36:02.990Z,18.60
2018-09-17T08:38:31.340Z,18.70
2018-09-17T08:40:59.650Z,18.70
2018-09-17T08:43:28.011Z,18.80
2018-09-17T08:45:56.366Z,18.90
2018-09-17T08:48:24.770Z,19.00
2018-09-17T08:50:53.174Z,19.00
2018-09-17T08:53:21.551Z,19.10
2018-09-17T08:55:55.237Z,19.20
2018-09-17T08:58:25.061Z,19.30
2018-09-17T09:00:58.869Z,19.30
2018-09-17T09:03:32.647Z,19.50
2018-09-17T09:06:07.520Z,19.60
2018-09-17T09:08:35.943Z,19.70
2018-09-17T09:11:09.587Z,19.80
2018-09-17T09:13:43.328Z,20.10
2018-09-17T09:16:11.773Z,20.20
2018-09-17T09:18:40.107Z,20.40
2018-09-17T09:21:08.430Z,20.50
2018-09-17T09:23:37.787Z,20.70
2018-09-17T09:26:06.124Z,20.90
2018-09-17T09:28:34.456Z,20.90
2018-09-17T09:31:02.808Z,21.10
2018-09-17T09:33:31.203Z,21.00
2018-09-17T09:35:59.667Z,21.00
2018-09-17T09:38:28.049Z,21.20
2018-09-17T09:40:56.417Z,21.30
2018-09-17T09:43:24.848Z,21.50
2018-09-17T09:45:53.346Z,21.70
2018-09-17T09:48:21.820Z,21.90
2018-09-17T09:50:50.205Z,22.10
2018-09-17T09:53:18.598Z,22.30
2018-09-17T09:55:46.940Z,22.30
2018-09-17T09:58:15.279Z,22.30
2018-09-17T10:00:48.914Z,22.40
2018-09-17T10:03:21.649Z,22.80
2018-09-17T10:05:50.050Z,23.10
2018-09-17T10:08:18.483Z,23.20
2018-09-17T10:10:52.150Z,23.20
2018-09-17T10:13:25.841Z,23.00
2018-09-17T10:15:55.586Z,23.10
2018-09-17T10:18:29.326Z,23.00
2018-09-17T10:20:58.049Z,23.00
2018-09-17T10:23:26.678Z,23.00
2018-09-17T10:25:59.053Z,23.00
2018-09-17T10:28:27.412Z,22.90
2018-09-17T10:30:55.742Z,22.90
2018-09-17T10:33:24.103Z,22.80
2018-09-17T10:35:52.441Z,22.80
2018-09-17T10:38:20.798Z,22.80
2018-09-17T10:40:49.120Z,22.90
2018-09-17T10:43:17.628Z,22.90
2018-09-17T10:45:46.138Z,23.00
2018-09-17T10:48:14.611Z,23.20
2018-09-17T10:50:43.106Z,23.40
2018-09-17T10:53:11.468Z,23.70
2018-09-17T10:55:39.804Z,23.90
2018-09-17T10:58:08.127Z,24.20
2018-09-17T11:00:36.758Z,24.40
2018-09-17T11:03:05.099Z,24.60
2018-09-17T11:05:33.439Z,24.70
2018-09-17T11:08:01.803Z,24.90
2018-09-17T11:10:30.215Z,25.10
2018-09-17T11:12:58.668Z,25.10
2018-09-17T11:15:32.263Z,24.80
2018-09-17T11:18:00.674Z,24.50
2018-09-17T11:20:29.059Z,24.50
2018-09-17T11:22:57.422Z,24.60
2018-09-17T11:25:25.795Z,24.70
2018-09-17T11:27:54.127Z,25.00
2018-09-17T11:30:22.446Z,25.00
2018-09-17T11:32:50.880Z,24.90
2018-09-17T11:35:19.230Z,24.80
2018-09-17T11:37:47.913Z,24.60
2018-09-17T11:40:16.402Z,24.40
2018-09-17T11:42:44.758Z,24.40
2018-09-17T11:45:13.122Z,24.30
2018-09-17T11:47:41.476Z,24.40
2018-09-17T11:50:09.922Z,24.20
2018-09-17T11:52:38.271Z,24.30
2018-09-17T11:55:06.767Z,24.20
2018-09-17T11:57:35.178Z,24.20
2018-09-17T12:00:03.575Z,24.20
2018-09-17T12:02:33.900Z,24.20
2018-09-17T12:05:07.068Z,24.50
2018-09-17T12:07:42.314Z,24.60
2018-09-17T12:10:11.347Z,24.60
2018-09-17T12:12:40.136Z,24.40
2018-09-17T12:15:08.914Z,24.50
2018-09-17T12:17:37.309Z,24.50
2018-09-17T12:20:05.688Z,24.70
2018-09-17T12:22:34.064Z,25.00
2018-09-17T12:25:02.644Z,25.30
2018-09-17T12:27:30.993Z,25.40
2018-09-17T12:29:59.366Z,25.60
2018-09-17T12:32:27.733Z,25.60
2018-09-17T12:34:56.085Z,25.60
2018-09-17T12:37:24.449Z,25.40
2018-09-17T12:39:52.829Z,25.50
2018-09-17T12:42:21.191Z,25.50
2018-09-17T12:44:49.551Z,25.70
2018-09-17T12:47:17.883Z,25.90
2018-09-17T12:49:46.281Z,25.90
2018-09-17T12:52:14.611Z,25.80
2018-09-17T12:54:42.983Z,25.90
2018-09-17T12:57:11.315Z,25.90
2018-09-17T12:59:39.607Z,25.70
2018-09-17T13:02:07.992Z,25.30
2018-09-17T13:04:36.292Z,25.70
2018-09-17T13:07:04.724Z,25.70
2018-09-17T13:09:33.166Z,25.60
2018-09-17T13:12:01.491Z,25.30
2018-09-17T13:14:29.818Z,25.40
2018-09-17T13:16:58.151Z,25.40
2018-09-17T13:19:26.472Z,25.40
2018-09-17T13:21:54.814Z,25.50
2018-09-17T13:24:23.137Z,25.90
2018-09-17T13:26:51.480Z,26.00
2018-09-17T13:29:19.809Z,26.30
2018-09-17T13:31:48.180Z,26.50
2018-09-17T13:34:16.497Z,26.80
2018-09-17T13:36:44.860Z,26.80
2018-09-17T13:39:13.180Z,26.80
2018-09-17T13:41:42.401Z,26.80
2018-09-17T13:44:10.791Z,27.10
2018-09-17T13:46:39.166Z,27.30
2018-09-17T13:49:07.488Z,27.40
2018-09-17T13:51:35.823Z,27.40
2018-09-17T13:54:04.163Z,27.80
2018-09-17T13:56:32.484Z,27.90
2018-09-17T13:59:00.903Z,28.20
2018-09-17T14:01:29.275Z,27.70
2018-09-17T14:03:57.673Z,27.90
2018-09-17T14:06:25.987Z,28.50
2018-09-17T14:08:54.366Z,28.80
2018-09-17T14:11:22.756Z,29.20
2018-09-17T14:13:51.118Z,29.50
2018-09-17T14:16:24.855Z,29.90
2018-09-17T14:18:53.274Z,29.90
2018-09-17T14:21:21.687Z,30.00
2018-09-17T14:23:50.076Z,29.80
2018-09-17T14:26:18.498Z,29.80
2018-09-17T14:28:46.862Z,29.50
2018-09-17T14:31:15.230Z,28.90
2018-09-17T14:33:43.590Z,29.00
2018-09-17T14:36:12.009Z,29.00
2018-09-17T14:38:40.894Z,28.80
2018-09-17T14:41:11.162Z,28.80
2018-09-17T14:43:40.289Z,28.80
2018-09-17T14:46:08.702Z,28.30
2018-09-17T14:48:38.078Z,27.70
2018-09-17T14:51:06.518Z,27.60
2018-09-17T14:53:34.945Z,27.60
2018-09-17T14:56:03.319Z,27.90
2018-09-17T14:58:32.823Z,28.00
2018-09-17T15:01:01.978Z,28.00
2018-09-17T15:03:30.486Z,27.90
2018-09-17T15:05:59.857Z,27.80
2018-09-17T15:08:28.271Z,27.50
2018-09-17T15:10:56.583Z,27.40
2018-09-17T15:13:24.974Z,27.50
2018-09-17T15:15:56.243Z,27.50
2018-09-17T15:18:24.960Z,27.40
2018-09-17T15:20:53.538Z,27.10
2018-09-17T15:23:22.756Z,27.00
2018-09-17T15:25:53.932Z,27.00
2018-09-17T15:28:22.980Z,26.90
2018-09-17T15:30:52.682Z,26.80
2018-09-17T15:33:21.077Z,26.60
2018-09-17T15:35:49.723Z,26.80
2018-09-17T15:38:18.178Z,26.80
2018-09-17T15:40:46.493Z,26.80
2018-09-17T15:43:14.833Z,26.60
2018-09-17T15:45:45.045Z,26.60
2018-09-17T15:48:18.461Z,26.30
2018-09-17T15:50:46.778Z,25.80
2018-09-17T15:53:15.116Z,25.60
2018-09-17T15:55:43.841Z,25.40
2018-09-17T15:58:12.726Z,25.10
2018-09-17T16:00:41.290Z,24.80
2018-09-17T16:03:10.354Z,24.70
2018-09-17T16:05:40.845Z,24.40
2018-09-17T16:08:10.252Z,24.20
2018-09-17T16:10:38.598Z,24.00
2018-09-17T16:13:06.951Z,23.90
2018-09-17T16:15:36.915Z,23.80
2018-09-17T16:18:06.520Z,23.70
2018-09-17T16:20:35.315Z,23.80
2018-09-17T16:23:04.251Z,23.80
2018-09-17T16:25:32.843Z,23.80
2018-09-17T16:28:03.263Z,23.80
2018-09-17T16:30:32.976Z,23.60
2018-09-17T16:33:03.487Z,23.40
2018-09-17T16:35:32.197Z,23.20
2018-09-17T16:38:02.686Z,23.00
2018-09-17T16:40:32.070Z,22.80
2018-09-17T16:43:07.155Z,22.60
2018-09-17T16:45:37.631Z,22.40
2018-09-17T16:48:07.399Z,22.20
2018-09-17T16:50:37.371Z,22.00
2018-09-17T16:53:05.789Z,21.80
2018-09-17T16:55:34.134Z,21.70
2018-09-17T16:58:02.453Z,21.60
2018-09-17T17:00:30.979Z,21.40
2018-09-17T17:02:59.862Z,21.20
2018-09-17T17:05:28.189Z,21.00
2018-09-17T17:07:58.679Z,20.80
2018-09-17T17:10:27.255Z,20.60
2018-09-17T17:12:55.647Z,20.50
2018-09-17T17:15:24.208Z,20.30
2018-09-17T17:17:53.549Z,20.20
2018-09-17T17:20:22.567Z,20.00
2018-09-17T17:22:52.043Z,19.80
2018-09-17T17:25:20.459Z,19.60
2018-09-17T17:27:48.859Z,19.50
2018-09-17T17:30:19.598Z,19.30
2018-09-17T17:32:49.420Z,19.00
2018-09-17T17:35:17.942Z,18.70
2018-09-17T17:37:47.116Z,18.30
2018-09-17T17:40:17.152Z,18.00
2018-09-17T17:42:46.130Z,17.70
2018-09-17T17:45:14.763Z,17.40
2018-09-17T17:47:43.302Z,17.10
2018-09-17T17:50:11.826Z,16.90
2018-09-17T17:52:40.333Z,16.80
2018-09-17T17:55:09.237Z,16.60
2018-09-17T17:57:38.558Z,16.50
2018-09-17T18:00:09.131Z,16.30
2018-09-17T18:02:38.866Z,16.20
2018-09-17T18:05:07.740Z,16.00
2018-09-17T18:07:37.548Z,15.90
2018-09-17T18:10:06.898Z,15.70
2018-09-17T18:12:36.710Z,15.60
2018-09-17T18:15:05.117Z,15.40
2018-09-17T18:17:33.539Z,15.30
2018-09-17T18:20:02.570Z,15.20
2018-09-17T18:22:32.243Z,15.00
2018-09-17T18:25:02.192Z,15.00
2018-09-17T18:27:30.710Z,14.90
2018-09-17T18:29:59.271Z,14.80
2018-09-17T18:32:27.750Z,14.80
2018-09-17T18:34:57.591Z,14.60
2018-09-17T18:37:27.241Z,14.50
2018-09-17T18:39:56.839Z,14.40
2018-09-17T18:42:25.353Z,14.30
2018-09-17T18:44:55.294Z,14.20
2018-09-17T18:47:23.761Z,14.10
2018-09-17T18:49:53.105Z,14.10
2018-09-17T18:52:21.493Z,14.00
2018-09-17T18:54:49.880Z,13.90
2018-09-17T18:57:19.927Z,13.80
2018-09-17T18:59:48.483Z,13.70
2018-09-17T19:02:19.187Z,13.50
2018-09-17T19:04:48.332Z,13.50
2018-09-17T19:07:17.625Z,13.40
2018-09-17T19:09:47.054Z,13.30
2018-09-17T19:12:18.053Z,13.20
2018-09-17T19:14:52.473Z,13.10
2018-09-17T19:17:26.490Z,13.00
2018-09-17T19:19:55.307Z,12.90
2018-09-17T19:22:29.696Z,12.90
2018-09-17T19:24:59.611Z,12.90
2018-09-17T19:27:34.194Z,12.80
2018-09-17T19:30:04.114Z,12.70
2018-09-17T19:32:33.686Z,12.70
2018-09-17T19:35:02.306Z,12.70
2018-09-17T19:37:36.371Z,12.60
2018-09-17T19:40:10.609Z,12.50
2018-09-17T19:42:39.218Z,12.40
2018-09-17T19:45:13.894Z,12.40
2018-09-17T19:47:42.404Z,12.30
2018-09-17T19:50:17.095Z,12.20
2018-09-17T19:52:45.957Z,12.20
2018-09-17T19:55:15.516Z,12.20
2018-09-17T19:57:49.511Z,12.20
2018-09-17T20:00:18.114Z,12.00
2018-09-17T20:02:47.579Z,11.90
2018-09-17T20:05:21.459Z,11.90
2018-09-17T20:07:50.053Z,11.70
2018-09-17T20:10:20.979Z,11.70
2018-09-17T20:12:51.002Z,11.70
2018-09-17T20:15:21.607Z,11.70
2018-09-17T20:17:50.026Z,11.60
2018-09-17T20:20:19.225Z,11.60
2018-09-17T20:22:47.657Z,11.70
2018-09-17T20:25:18.047Z,11.70
2018-09-17T20:27:46.642Z,11.70
2018-09-17T20:30:15.276Z,11.60
2018-09-17T20:32:43.667Z,11.60
2018-09-17T20:35:12.133Z,11.80
2018-09-17T20:37:40.547Z,11.80
2018-09-17T20:40:08.977Z,11.80
2018-09-17T20:42:37.371Z,12.00
2018-09-17T20:45:05.884Z,12.10
2018-09-17T20:47:34.298Z,12.20
2018-09-17T20:50:02.748Z,12.10
2018-09-17T20:52:31.229Z,12.30
2018-09-17T20:54:59.729Z,12.30
2018-09-17T20:57:28.422Z,12.50
2018-09-17T20:59:56.868Z,12.70
2018-09-17T21:02:25.279Z,12.90
2018-09-17T21:04:53.789Z,13.10
2018-09-17T21:07:22.362Z,13.20
2018-09-17T21:09:50.779Z,13.20
2018-09-17T21:12:19.396Z,13.20
2018-09-17T21:14:47.847Z,13.20
2018-09-17T21:17:16.320Z,13.10
2018-09-17T21:19:44.679Z,13.00
2018-09-17T21:22:13.112Z,12.90
2018-09-17T21:24:41.612Z,12.70
2018-09-17T21:27:10.305Z,12.60
2018-09-17T21:29:38.741Z,12.60
2018-09-17T21:32:07.247Z,12.60
2018-09-17T21:34:35.710Z,12.60
2018-09-17T21:37:04.250Z,12.50
2018-09-17T21:39:32.690Z,12.50
2018-09-17T21:42:01.190Z,12.40
2018-09-17T21:44:29.672Z,12.40
2018-09-17T21:46:58.110Z,12.30
2018-09-17T21:49:26.554Z,12.30
2018-09-17T21:51:55.090Z,12.20
2018-09-17T21:54:23.572Z,12.20
2018-09-17T21:56:52.075Z,12.10
2018-09-17T21:59:20.449Z,12.00
2018-09-17T22:01:48.958Z,11.90
2018-09-17T22:04:17.439Z,11.80
2018-09-17T22:06:45.839Z,11.80
2018-09-17T22:09:14.315Z,11.70
2018-09-17T22:11:42.790Z,11.60
2018-09-17T22:14:11.275Z,11.60
2018-09-17T22:16:39.724Z,11.50
2018-09-17T22:19:08.288Z,11.60
2018-09-17T22:21:36.791Z,11.60
2018-09-17T22:24:05.267Z,11.80
2018-09-17T22:26:33.709Z,12.10
2018-09-17T22:29:02.212Z,12.40
2018-09-17T22:31:30.718Z,12.90
2018-09-17T22:33:59.209Z,13.20
2018-09-17T22:36:27.650Z,13.80
2018-09-17T22:38:56.134Z,14.20
2018-09-17T22:41:24.635Z,14.50
2018-09-17T22:43:53.109Z,14.70
2018-09-17T22:46:21.556Z,15.00
2018-09-17T22:48:49.990Z,15.10
2018-09-17T22:51:18.440Z,15.30
2018-09-17T22:53:46.954Z,15.40
2018-09-17T22:56:15.471Z,15.60
2018-09-17T22:58:43.946Z,15.60
2018-09-17T23:01:12.410Z,15.60
2018-09-17T23:03:40.850Z,15.50
2018-09-17T23:06:09.302Z,15.40
2018-09-17T23:08:37.765Z,15.40
2018-09-17T23:11:06.347Z,15.40
2018-09-17T23:13:34.737Z,15.40
2018-09-17T23:16:03.177Z,15.40
2018-09-17T23:18:31.604Z,15.30
2018-09-17T23:21:00.083Z,15.20
2018-09-17T23:23:28.444Z,15.20
2018-09-17T23:25:56.943Z,15.30
2018-09-17T23:28:25.404Z,15.20
2018-09-17T23:30:53.841Z,15.40
2018-09-17T23:33:22.316Z,15.30
2018-09-17T23:35:50.741Z,15.10
2018-09-17T23:38:19.266Z,15.00
2018-09-17T23:40:47.769Z,15.00
2018-09-17T23:43:16.225Z,15.00
2018-09-17T23:45:44.685Z,15.10
2018-09-17T23:48:13.173Z,15.30
2018-09-17T23:50:41.674Z,15.60
2018-09-17T23:53:10.116Z,15.70
2018-09-17T23:55:38.598Z,15.90
2018-09-17T23:58:07.163Z,16.00
